sensor_id;sensor_type;location;lat;lon;timestamp;temperature;humidity
49379;DHT22;35254;47.990;-1.608;2022-10-28T00:02:11;23.20;60.70
49379;DHT22;35254;47.990;-1.608;2022-10-28T00:04:36;23.20;60.70
49379;DHT22;35254;47.990;-1.608;2022-10-28T00:07:02;23.20;60.60
49379;DHT22;35254;47.990;-1.608;2022-10-28T00:09:28;23.20;60.70
49379;DHT22;35254;47.990;-1.608;2022-10-28T00:11:54;23.10;60.70
49379;DHT22;35254;47.990;-1.608;2022-10-28T00:14:20;23.10;60.70
49379;DHT22;35254;47.990;-1.608;2022-10-28T00:16:46;23.10;60.70
49379;DHT22;35254;47.990;-1.608;2022-10-28T00:19:12;23.10;60.70
49379;DHT22;35254;47.990;-1.608;2022-10-28T00:21:40;23.10;60.70
49379;DHT22;35254;47.990;-1.608;2022-10-28T00:24:07;23.10;60.80
49379;DHT22;35254;47.990;-1.608;2022-10-28T00:26:35;23.10;60.80
49379;DHT22;35254;47.990;-1.608;2022-10-28T00:29:27;23.10;60.80
49379;DHT22;35254;47.990;-1.608;2022-10-28T00:31:52;23.10;60.80
49379;DHT22;35254;47.990;-1.608;2022-10-28T00:34:19;23.10;60.70
49379;DHT22;35254;47.990;-1.608;2022-10-28T00:36:48;23.00;60.70
49379;DHT22;35254;47.990;-1.608;2022-10-28T00:39:22;23.00;60.80
49379;DHT22;35254;47.990;-1.608;2022-10-28T00:41:57;23.00;60.80
49379;DHT22;35254;47.990;-1.608;2022-10-28T00:47:31;23.00;60.80
49379;DHT22;35254;47.990;-1.608;2022-10-28T00:53:10;23.00;60.80
49379;DHT22;35254;47.990;-1.608;2022-10-28T00:55:38;23.00;60.80
49379;DHT22;35254;47.990;-1.608;2022-10-28T00:58:05;23.00;60.70
49379;DHT22;35254;47.990;-1.608;2022-10-28T01:00:32;23.00;60.80
49379;DHT22;35254;47.990;-1.608;2022-10-28T01:02:58;23.00;60.90
49379;DHT22;35254;47.990;-1.608;2022-10-28T01:05:27;23.00;60.80
49379;DHT22;35254;47.990;-1.608;2022-10-28T01:07:59;23.00;60.70
49379;DHT22;35254;47.990;-1.608;2022-10-28T01:16:05;22.90;60.80
49379;DHT22;35254;47.990;-1.608;2022-10-28T01:21:40;22.90;60.80
49379;DHT22;35254;47.990;-1.608;2022-10-28T01:35:13;22.90;60.70
49379;DHT22;35254;47.990;-1.608;2022-10-28T01:46:30;22.90;60.80
49379;DHT22;35254;47.990;-1.608;2022-10-28T01:49:04;22.90;60.70
49379;DHT22;35254;47.990;-1.608;2022-10-28T01:51:36;22.90;60.70
49379;DHT22;35254;47.990;-1.608;2022-10-28T01:54:05;22.90;60.70
49379;DHT22;35254;47.990;-1.608;2022-10-28T01:56:37;22.90;60.70
49379;DHT22;35254;47.990;-1.608;2022-10-28T01:59:09;22.90;60.70
49379;DHT22;35254;47.990;-1.608;2022-10-28T02:01:35;22.90;60.70
49379;DHT22;35254;47.990;-1.608;2022-10-28T02:04:01;22.90;60.70
49379;DHT22;35254;47.990;-1.608;2022-10-28T02:06:29;22.90;60.60
49379;DHT22;35254;47.990;-1.608;2022-10-28T02:09:14;22.90;60.60
49379;DHT22;35254;47.990;-1.608;2022-10-28T02:17:43;22.80;60.70
49379;DHT22;35254;47.990;-1.608;2022-10-28T02:23:16;22.80;60.60
49379;DHT22;35254;47.990;-1.608;2022-10-28T02:25:55;22.80;60.70
49379;DHT22;35254;47.990;-1.608;2022-10-28T02:31:00;22.80;60.60
49379;DHT22;35254;47.990;-1.608;2022-10-28T02:33:33;22.80;60.60
49379;DHT22;35254;47.990;-1.608;2022-10-28T02:36:03;22.80;60.70
49379;DHT22;35254;47.990;-1.608;2022-10-28T02:38:40;22.80;60.70
49379;DHT22;35254;47.990;-1.608;2022-10-28T02:41:26;22.80;60.70
49379;DHT22;35254;47.990;-1.608;2022-10-28T02:43:59;22.80;60.70
49379;DHT22;35254;47.990;-1.608;2022-10-28T02:46:28;22.80;60.60
49379;DHT22;35254;47.990;-1.608;2022-10-28T02:49:07;22.80;60.70
49379;DHT22;35254;47.990;-1.608;2022-10-28T02:51:41;22.70;60.70
49379;DHT22;35254;47.990;-1.608;2022-10-28T02:54:16;22.80;60.80
49379;DHT22;35254;47.990;-1.608;2022-10-28T02:59:33;22.70;60.70
49379;DHT22;35254;47.990;-1.608;2022-10-28T03:01:59;22.70;60.70
49379;DHT22;35254;47.990;-1.608;2022-10-28T03:04:24;22.70;60.80
49379;DHT22;35254;47.990;-1.608;2022-10-28T03:06:50;22.70;60.80
49379;DHT22;35254;47.990;-1.608;2022-10-28T03:09:16;22.70;60.80
49379;DHT22;35254;47.990;-1.608;2022-10-28T03:11:41;22.70;60.70
49379;DHT22;35254;47.990;-1.608;2022-10-28T03:14:07;22.70;60.70
49379;DHT22;35254;47.990;-1.608;2022-10-28T03:16:32;22.70;60.70
49379;DHT22;35254;47.990;-1.608;2022-10-28T03:18:58;22.70;60.70
49379;DHT22;35254;47.990;-1.608;2022-10-28T03:21:24;22.70;60.70
49379;DHT22;35254;47.990;-1.608;2022-10-28T03:23:49;22.70;60.70
49379;DHT22;35254;47.990;-1.608;2022-10-28T03:26:15;22.70;60.70
49379;DHT22;35254;47.990;-1.608;2022-10-28T03:28:40;22.70;60.70
49379;DHT22;35254;47.990;-1.608;2022-10-28T03:31:06;22.70;60.60
49379;DHT22;35254;47.990;-1.608;2022-10-28T03:33:32;22.70;60.70
49379;DHT22;35254;47.990;-1.608;2022-10-28T03:35:57;22.70;60.60
49379;DHT22;35254;47.990;-1.608;2022-10-28T03:38:23;22.70;60.60
49379;DHT22;35254;47.990;-1.608;2022-10-28T03:40:49;22.70;60.70
49379;DHT22;35254;47.990;-1.608;2022-10-28T03:43:16;22.70;60.60
49379;DHT22;35254;47.990;-1.608;2022-10-28T03:45:42;22.70;60.60
49379;DHT22;35254;47.990;-1.608;2022-10-28T03:48:07;22.70;60.60
49379;DHT22;35254;47.990;-1.608;2022-10-28T03:50:33;22.70;60.50
49379;DHT22;35254;47.990;-1.608;2022-10-28T03:52:59;22.70;60.50
49379;DHT22;35254;47.990;-1.608;2022-10-28T03:55:25;22.70;60.50
49379;DHT22;35254;47.990;-1.608;2022-10-28T03:57:52;22.70;60.50
49379;DHT22;35254;47.990;-1.608;2022-10-28T04:00:18;22.70;60.50
49379;DHT22;35254;47.990;-1.608;2022-10-28T04:02:51;22.70;60.50
49379;DHT22;35254;47.990;-1.608;2022-10-28T04:05:17;22.70;60.50
49379;DHT22;35254;47.990;-1.608;2022-10-28T04:07:43;22.70;60.50
49379;DHT22;35254;47.990;-1.608;2022-10-28T04:10:09;22.70;60.50
49379;DHT22;35254;47.990;-1.608;2022-10-28T04:12:34;22.70;60.50
49379;DHT22;35254;47.990;-1.608;2022-10-28T04:15:00;22.70;60.50
49379;DHT22;35254;47.990;-1.608;2022-10-28T04:17:26;22.70;60.50
49379;DHT22;35254;47.990;-1.608;2022-10-28T04:19:51;22.60;60.50
49379;DHT22;35254;47.990;-1.608;2022-10-28T04:22:17;22.60;60.50
49379;DHT22;35254;47.990;-1.608;2022-10-28T04:24:43;22.70;60.60
49379;DHT22;35254;47.990;-1.608;2022-10-28T04:27:08;22.60;60.60
49379;DHT22;35254;47.990;-1.608;2022-10-28T04:29:34;22.60;60.60
49379;DHT22;35254;47.990;-1.608;2022-10-28T04:32:00;22.60;60.60
49379;DHT22;35254;47.990;-1.608;2022-10-28T04:34:26;22.60;60.50
49379;DHT22;35254;47.990;-1.608;2022-10-28T04:36:51;22.60;60.70
49379;DHT22;35254;47.990;-1.608;2022-10-28T04:39:17;22.60;60.70
49379;DHT22;35254;47.990;-1.608;2022-10-28T04:41:43;22.70;60.60
49379;DHT22;35254;47.990;-1.608;2022-10-28T04:44:08;22.70;60.70
49379;DHT22;35254;47.990;-1.608;2022-10-28T04:46:34;22.70;60.80
49379;DHT22;35254;47.990;-1.608;2022-10-28T04:49:02;22.70;60.90
49379;DHT22;35254;47.990;-1.608;2022-10-28T04:51:29;22.70;61.00
49379;DHT22;35254;47.990;-1.608;2022-10-28T04:53:54;22.70;61.00
49379;DHT22;35254;47.990;-1.608;2022-10-28T04:56:20;22.60;61.10
49379;DHT22;35254;47.990;-1.608;2022-10-28T04:58:46;22.70;61.20
49379;DHT22;35254;47.990;-1.608;2022-10-28T05:01:12;22.60;61.30
49379;DHT22;35254;47.990;-1.608;2022-10-28T05:03:37;22.70;61.30
49379;DHT22;35254;47.990;-1.608;2022-10-28T05:06:03;22.60;61.40
49379;DHT22;35254;47.990;-1.608;2022-10-28T05:08:28;22.70;61.40
49379;DHT22;35254;47.990;-1.608;2022-10-28T05:10:54;22.60;61.50
49379;DHT22;35254;47.990;-1.608;2022-10-28T05:13:20;22.60;61.50
49379;DHT22;35254;47.990;-1.608;2022-10-28T05:15:48;22.60;61.50
49379;DHT22;35254;47.990;-1.608;2022-10-28T05:18:14;22.60;61.60
49379;DHT22;35254;47.990;-1.608;2022-10-28T05:20:40;22.60;61.50
49379;DHT22;35254;47.990;-1.608;2022-10-28T05:23:06;22.60;61.50
49379;DHT22;35254;47.990;-1.608;2022-10-28T05:25:32;22.60;61.60
49379;DHT22;35254;47.990;-1.608;2022-10-28T05:27:58;22.60;61.60
49379;DHT22;35254;47.990;-1.608;2022-10-28T05:30:25;22.60;61.60
49379;DHT22;35254;47.990;-1.608;2022-10-28T05:32:50;22.60;61.60
49379;DHT22;35254;47.990;-1.608;2022-10-28T05:35:16;22.60;61.60
49379;DHT22;35254;47.990;-1.608;2022-10-28T05:37:42;22.60;61.60
49379;DHT22;35254;47.990;-1.608;2022-10-28T05:40:09;22.60;61.70
49379;DHT22;35254;47.990;-1.608;2022-10-28T05:42:43;22.60;61.70
49379;DHT22;35254;47.990;-1.608;2022-10-28T05:45:10;22.60;61.70
49379;DHT22;35254;47.990;-1.608;2022-10-28T05:47:35;22.60;61.70
49379;DHT22;35254;47.990;-1.608;2022-10-28T05:50:01;22.60;61.70
49379;DHT22;35254;47.990;-1.608;2022-10-28T05:52:27;22.60;61.80
49379;DHT22;35254;47.990;-1.608;2022-10-28T05:54:52;22.60;61.90
49379;DHT22;35254;47.990;-1.608;2022-10-28T05:57:18;22.60;61.80
49379;DHT22;35254;47.990;-1.608;2022-10-28T05:59:43;22.60;61.90
49379;DHT22;35254;47.990;-1.608;2022-10-28T06:02:13;22.60;61.80
49379;DHT22;35254;47.990;-1.608;2022-10-28T06:04:40;22.60;61.80
49379;DHT22;35254;47.990;-1.608;2022-10-28T06:07:06;22.60;61.80
49379;DHT22;35254;47.990;-1.608;2022-10-28T06:09:32;22.60;61.80
49379;DHT22;35254;47.990;-1.608;2022-10-28T06:11:57;22.60;61.90
49379;DHT22;35254;47.990;-1.608;2022-10-28T06:14:23;22.60;61.90
49379;DHT22;35254;47.990;-1.608;2022-10-28T06:16:49;22.60;62.00
49379;DHT22;35254;47.990;-1.608;2022-10-28T06:19:15;22.60;62.00
49379;DHT22;35254;47.990;-1.608;2022-10-28T06:21:40;22.60;62.10
49379;DHT22;35254;47.990;-1.608;2022-10-28T06:24:06;22.60;62.20
49379;DHT22;35254;47.990;-1.608;2022-10-28T06:26:33;22.60;62.20
49379;DHT22;35254;47.990;-1.608;2022-10-28T06:28:58;22.60;62.30
49379;DHT22;35254;47.990;-1.608;2022-10-28T06:31:24;22.60;62.30
49379;DHT22;35254;47.990;-1.608;2022-10-28T06:33:50;22.60;62.20
49379;DHT22;35254;47.990;-1.608;2022-10-28T06:36:15;22.60;62.20
49379;DHT22;35254;47.990;-1.608;2022-10-28T06:38:41;22.60;62.50
49379;DHT22;35254;47.990;-1.608;2022-10-28T06:41:06;22.60;62.40
49379;DHT22;35254;47.990;-1.608;2022-10-28T06:43:32;22.70;63.10
49379;DHT22;35254;47.990;-1.608;2022-10-28T06:46:02;22.70;62.70
49379;DHT22;35254;47.990;-1.608;2022-10-28T06:48:28;22.70;63.30
49379;DHT22;35254;47.990;-1.608;2022-10-28T06:50:54;22.70;63.30
49379;DHT22;35254;47.990;-1.608;2022-10-28T06:53:22;22.70;63.10
49379;DHT22;35254;47.990;-1.608;2022-10-28T06:55:52;22.70;63.10
49379;DHT22;35254;47.990;-1.608;2022-10-28T06:58:18;22.60;63.30
49379;DHT22;35254;47.990;-1.608;2022-10-28T07:00:43;22.70;63.30
49379;DHT22;35254;47.990;-1.608;2022-10-28T07:03:09;22.60;63.40
49379;DHT22;35254;47.990;-1.608;2022-10-28T07:05:35;22.60;63.40
49379;DHT22;35254;47.990;-1.608;2022-10-28T07:08:01;22.60;63.50
49379;DHT22;35254;47.990;-1.608;2022-10-28T07:10:26;22.60;63.40
49379;DHT22;35254;47.990;-1.608;2022-10-28T07:12:52;22.60;63.40
49379;DHT22;35254;47.990;-1.608;2022-10-28T07:15:18;22.60;63.40
49379;DHT22;35254;47.990;-1.608;2022-10-28T07:17:43;22.60;63.30
49379;DHT22;35254;47.990;-1.608;2022-10-28T07:20:10;22.60;63.30
49379;DHT22;35254;47.990;-1.608;2022-10-28T07:22:36;22.60;63.40
49379;DHT22;35254;47.990;-1.608;2022-10-28T07:25:02;22.60;63.30
49379;DHT22;35254;47.990;-1.608;2022-10-28T07:27:28;22.60;63.30
49379;DHT22;35254;47.990;-1.608;2022-10-28T07:29:53;22.60;63.00
49379;DHT22;35254;47.990;-1.608;2022-10-28T07:32:19;22.60;63.10
49379;DHT22;35254;47.990;-1.608;2022-10-28T07:34:44;22.60;63.40
49379;DHT22;35254;47.990;-1.608;2022-10-28T07:37:10;22.60;63.50
49379;DHT22;35254;47.990;-1.608;2022-10-28T07:39:37;22.60;64.00
49379;DHT22;35254;47.990;-1.608;2022-10-28T07:42:03;22.70;64.00
49379;DHT22;35254;47.990;-1.608;2022-10-28T07:44:28;22.60;63.60
49379;DHT22;35254;47.990;-1.608;2022-10-28T07:46:54;22.60;63.10
49379;DHT22;35254;47.990;-1.608;2022-10-28T07:49:20;22.50;63.30
49379;DHT22;35254;47.990;-1.608;2022-10-28T07:51:45;22.40;63.40
49379;DHT22;35254;47.990;-1.608;2022-10-28T07:54:12;22.50;63.60
49379;DHT22;35254;47.990;-1.608;2022-10-28T07:56:37;22.50;64.10
49379;DHT22;35254;47.990;-1.608;2022-10-28T07:59:03;22.60;63.70
49379;DHT22;35254;47.990;-1.608;2022-10-28T08:01:28;22.60;63.70
49379;DHT22;35254;47.990;-1.608;2022-10-28T08:03:54;22.60;63.90
49379;DHT22;35254;47.990;-1.608;2022-10-28T08:06:20;22.60;63.90
49379;DHT22;35254;47.990;-1.608;2022-10-28T08:08:47;22.60;64.10
49379;DHT22;35254;47.990;-1.608;2022-10-28T08:11:17;22.60;64.00
49379;DHT22;35254;47.990;-1.608;2022-10-28T08:13:43;22.60;63.90
49379;DHT22;35254;47.990;-1.608;2022-10-28T08:16:09;22.60;64.20
49379;DHT22;35254;47.990;-1.608;2022-10-28T08:18:35;22.60;63.90
49379;DHT22;35254;47.990;-1.608;2022-10-28T08:21:02;22.60;63.90
49379;DHT22;35254;47.990;-1.608;2022-10-28T08:23:28;22.60;63.60
49379;DHT22;35254;47.990;-1.608;2022-10-28T08:25:54;22.70;63.40
49379;DHT22;35254;47.990;-1.608;2022-10-28T08:28:21;22.80;63.10
49379;DHT22;35254;47.990;-1.608;2022-10-28T08:30:47;22.80;62.80
49379;DHT22;35254;47.990;-1.608;2022-10-28T08:33:13;22.80;63.10
49379;DHT22;35254;47.990;-1.608;2022-10-28T08:35:39;22.90;62.80
49379;DHT22;35254;47.990;-1.608;2022-10-28T08:38:05;22.90;62.60
49379;DHT22;35254;47.990;-1.608;2022-10-28T08:43:07;22.90;63.00
49379;DHT22;35254;47.990;-1.608;2022-10-28T08:46:27;23.00;63.00
49379;DHT22;35254;47.990;-1.608;2022-10-28T08:48:34;22.90;63.20
49379;DHT22;35254;47.990;-1.608;2022-10-28T08:51:15;22.90;63.20
49379;DHT22;35254;47.990;-1.608;2022-10-28T08:53:56;22.90;63.50
49379;DHT22;35254;47.990;-1.608;2022-10-28T08:56:36;22.90;63.30
49379;DHT22;35254;47.990;-1.608;2022-10-28T08:59:04;23.00;62.90
49379;DHT22;35254;47.990;-1.608;2022-10-28T09:01:49;23.10;62.80
49379;DHT22;35254;47.990;-1.608;2022-10-28T09:04:36;23.10;62.60
49379;DHT22;35254;47.990;-1.608;2022-10-28T09:07:04;23.20;62.50
49379;DHT22;35254;47.990;-1.608;2022-10-28T09:09:30;23.20;62.30
49379;DHT22;35254;47.990;-1.608;2022-10-28T09:20:14;23.20;62.10
49379;DHT22;35254;47.990;-1.608;2022-10-28T09:22:59;23.20;62.10
49379;DHT22;35254;47.990;-1.608;2022-10-28T09:25:35;23.20;62.20
49379;DHT22;35254;47.990;-1.608;2022-10-28T09:30:43;23.30;62.00
49379;DHT22;35254;47.990;-1.608;2022-10-28T09:35:53;23.30;61.80
49379;DHT22;35254;47.990;-1.608;2022-10-28T09:38:33;23.30;61.80
49379;DHT22;35254;47.990;-1.608;2022-10-28T09:44:06;23.30;61.90
49379;DHT22;35254;47.990;-1.608;2022-10-28T09:46:36;23.30;62.00
49379;DHT22;35254;47.990;-1.608;2022-10-28T09:49:23;23.30;62.00
49379;DHT22;35254;47.990;-1.608;2022-10-28T09:52:03;23.20;62.10
49379;DHT22;35254;47.990;-1.608;2022-10-28T09:54:51;23.20;62.10
49379;DHT22;35254;47.990;-1.608;2022-10-28T09:57:18;23.30;62.10
49379;DHT22;35254;47.990;-1.608;2022-10-28T09:59:44;23.20;62.20
49379;DHT22;35254;47.990;-1.608;2022-10-28T10:02:29;23.20;62.10
49379;DHT22;35254;47.990;-1.608;2022-10-28T10:04:58;23.20;62.20
49379;DHT22;35254;47.990;-1.608;2022-10-28T10:07:38;23.20;62.20
49379;DHT22;35254;47.990;-1.608;2022-10-28T10:10:13;23.20;62.30
49379;DHT22;35254;47.990;-1.608;2022-10-28T10:12:39;23.20;62.30
49379;DHT22;35254;47.990;-1.608;2022-10-28T10:15:09;23.20;62.30
49379;DHT22;35254;47.990;-1.608;2022-10-28T10:17:44;23.20;62.30
49379;DHT22;35254;47.990;-1.608;2022-10-28T10:20:14;23.20;62.40
49379;DHT22;35254;47.990;-1.608;2022-10-28T10:22:42;23.20;62.40
49379;DHT22;35254;47.990;-1.608;2022-10-28T10:25:27;23.10;62.40
49379;DHT22;35254;47.990;-1.608;2022-10-28T10:28:13;23.10;62.50
49379;DHT22;35254;47.990;-1.608;2022-10-28T10:30:51;23.10;62.60
49379;DHT22;35254;47.990;-1.608;2022-10-28T10:33:38;23.10;62.60
49379;DHT22;35254;47.990;-1.608;2022-10-28T10:36:12;23.00;62.60
49379;DHT22;35254;47.990;-1.608;2022-10-28T10:38:47;23.10;62.70
49379;DHT22;35254;47.990;-1.608;2022-10-28T10:43:57;23.00;62.60
49379;DHT22;35254;47.990;-1.608;2022-10-28T10:46:22;23.00;62.70
49379;DHT22;35254;47.990;-1.608;2022-10-28T10:49:05;23.10;62.80
49379;DHT22;35254;47.990;-1.608;2022-10-28T10:51:36;23.00;62.70
49379;DHT22;35254;47.990;-1.608;2022-10-28T10:54:02;23.00;62.60
49379;DHT22;35254;47.990;-1.608;2022-10-28T10:56:30;23.00;62.70
49379;DHT22;35254;47.990;-1.608;2022-10-28T10:59:00;23.00;62.50
49379;DHT22;35254;47.990;-1.608;2022-10-28T11:01:31;23.00;62.60
49379;DHT22;35254;47.990;-1.608;2022-10-28T11:04:00;23.10;62.70
49379;DHT22;35254;47.990;-1.608;2022-10-28T11:06:29;23.10;62.60
49379;DHT22;35254;47.990;-1.608;2022-10-28T11:09:30;23.00;62.50
49379;DHT22;35254;47.990;-1.608;2022-10-28T11:11:58;23.10;62.40
49379;DHT22;35254;47.990;-1.608;2022-10-28T11:14:25;23.10;62.50
49379;DHT22;35254;47.990;-1.608;2022-10-28T11:17:00;23.10;62.70
49379;DHT22;35254;47.990;-1.608;2022-10-28T11:19:35;23.10;62.60
49379;DHT22;35254;47.990;-1.608;2022-10-28T11:22:12;23.10;62.50
49379;DHT22;35254;47.990;-1.608;2022-10-28T11:30:04;23.10;62.50
49379;DHT22;35254;47.990;-1.608;2022-10-28T11:35:34;23.10;62.50
49379;DHT22;35254;47.990;-1.608;2022-10-28T11:41:00;23.10;62.60
49379;DHT22;35254;47.990;-1.608;2022-10-28T11:43:42;23.10;62.70
49379;DHT22;35254;47.990;-1.608;2022-10-28T11:46:15;23.20;62.60
49379;DHT22;35254;47.990;-1.608;2022-10-28T11:52:42;23.20;63.30
49379;DHT22;35254;47.990;-1.608;2022-10-28T11:57:13;23.20;62.60
49379;DHT22;35254;47.990;-1.608;2022-10-28T12:06:04;23.20;62.70
49379;DHT22;35254;47.990;-1.608;2022-10-28T12:17:18;23.20;62.70
49379;DHT22;35254;47.990;-1.608;2022-10-28T12:19:57;23.20;63.20
49379;DHT22;35254;47.990;-1.608;2022-10-28T12:22:31;23.20;64.10
49379;DHT22;35254;47.990;-1.608;2022-10-28T12:25:02;23.20;64.60
49379;DHT22;35254;47.990;-1.608;2022-10-28T12:27:36;23.20;62.70
49379;DHT22;35254;47.990;-1.608;2022-10-28T12:32:47;23.20;63.10
49379;DHT22;35254;47.990;-1.608;2022-10-28T12:35:22;23.30;63.80
49379;DHT22;35254;47.990;-1.608;2022-10-28T12:43:21;23.40;63.80
49379;DHT22;35254;47.990;-1.608;2022-10-28T12:45:52;23.40;63.20
49379;DHT22;35254;47.990;-1.608;2022-10-28T12:48:42;23.30;63.00
49379;DHT22;35254;47.990;-1.608;2022-10-28T12:51:16;23.40;63.30
49379;DHT22;35254;47.990;-1.608;2022-10-28T12:53:52;23.30;63.00
49379;DHT22;35254;47.990;-1.608;2022-10-28T12:56:28;23.40;63.20
49379;DHT22;35254;47.990;-1.608;2022-10-28T13:01:31;23.40;63.10
49379;DHT22;35254;47.990;-1.608;2022-10-28T13:03:58;23.40;63.20
49379;DHT22;35254;47.990;-1.608;2022-10-28T13:06:45;23.30;63.20
49379;DHT22;35254;47.990;-1.608;2022-10-28T13:09:36;23.30;63.50
49379;DHT22;35254;47.990;-1.608;2022-10-28T13:12:41;23.30;63.50
49379;DHT22;35254;47.990;-1.608;2022-10-28T13:26:29;23.30;64.00
49379;DHT22;35254;47.990;-1.608;2022-10-28T13:29:00;23.30;63.70
49379;DHT22;35254;47.990;-1.608;2022-10-28T13:31:41;23.30;64.70
49379;DHT22;35254;47.990;-1.608;2022-10-28T13:34:10;23.20;64.50
49379;DHT22;35254;47.990;-1.608;2022-10-28T13:36:39;23.30;65.30
49379;DHT22;35254;47.990;-1.608;2022-10-28T13:52:34;23.20;64.30
49379;DHT22;35254;47.990;-1.608;2022-10-28T13:57:42;23.20;65.00
49379;DHT22;35254;47.990;-1.608;2022-10-28T14:05:20;23.30;64.20
49379;DHT22;35254;47.990;-1.608;2022-10-28T14:07:57;23.30;64.60
49379;DHT22;35254;47.990;-1.608;2022-10-28T14:10:30;23.20;64.60
49379;DHT22;35254;47.990;-1.608;2022-10-28T14:13:18;23.20;64.10
49379;DHT22;35254;47.990;-1.608;2022-10-28T14:15:45;23.20;64.60
49379;DHT22;35254;47.990;-1.608;2022-10-28T14:47:36;23.20;64.20
49379;DHT22;35254;47.990;-1.608;2022-10-28T14:52:39;23.20;64.60
49379;DHT22;35254;47.990;-1.608;2022-10-28T14:55:06;23.20;64.50
49379;DHT22;35254;47.990;-1.608;2022-10-28T14:57:33;23.10;64.40
49379;DHT22;35254;47.990;-1.608;2022-10-28T15:00:06;23.10;64.40
49379;DHT22;35254;47.990;-1.608;2022-10-28T15:02:34;23.10;64.30
49379;DHT22;35254;47.990;-1.608;2022-10-28T15:05:18;23.10;64.50
49379;DHT22;35254;47.990;-1.608;2022-10-28T15:07:48;23.20;65.30
49379;DHT22;35254;47.990;-1.608;2022-10-28T15:10:18;23.20;64.40
49379;DHT22;35254;47.990;-1.608;2022-10-28T15:12:47;23.20;64.50
49379;DHT22;35254;47.990;-1.608;2022-10-28T15:17:45;23.10;64.60
49379;DHT22;35254;47.990;-1.608;2022-10-28T15:20:29;23.10;64.40
49379;DHT22;35254;47.990;-1.608;2022-10-28T15:23:19;23.20;64.60
49379;DHT22;35254;47.990;-1.608;2022-10-28T15:25:45;23.20;64.30
49379;DHT22;35254;47.990;-1.608;2022-10-28T15:28:29;23.10;64.30
49379;DHT22;35254;47.990;-1.608;2022-10-28T15:30:54;23.20;65.20
49379;DHT22;35254;47.990;-1.608;2022-10-28T15:33:28;23.10;64.40
49379;DHT22;35254;47.990;-1.608;2022-10-28T15:38:39;23.10;65.10
49379;DHT22;35254;47.990;-1.608;2022-10-28T15:43:56;23.10;64.70
49379;DHT22;35254;47.990;-1.608;2022-10-28T15:46:23;23.10;65.00
49379;DHT22;35254;47.990;-1.608;2022-10-28T15:48:57;23.20;65.00
49379;DHT22;35254;47.990;-1.608;2022-10-28T15:51:24;23.10;64.60
49379;DHT22;35254;47.990;-1.608;2022-10-28T15:53:53;23.10;64.80
49379;DHT22;35254;47.990;-1.608;2022-10-28T15:56:23;23.10;65.60
49379;DHT22;35254;47.990;-1.608;2022-10-28T16:01:38;23.10;64.50
49379;DHT22;35254;47.990;-1.608;2022-10-28T16:04:05;23.00;64.30
49379;DHT22;35254;47.990;-1.608;2022-10-28T16:06:52;23.00;64.30
49379;DHT22;35254;47.990;-1.608;2022-10-28T16:09:30;23.00;64.40
49379;DHT22;35254;47.990;-1.608;2022-10-28T16:11:59;23.00;64.40
49379;DHT22;35254;47.990;-1.608;2022-10-28T16:14:37;23.00;64.30
49379;DHT22;35254;47.990;-1.608;2022-10-28T16:17:18;22.90;64.40
49379;DHT22;35254;47.990;-1.608;2022-10-28T16:19:59;23.00;64.30
49379;DHT22;35254;47.990;-1.608;2022-10-28T16:22:27;23.00;64.30
49379;DHT22;35254;47.990;-1.608;2022-10-28T16:24:54;23.00;64.30
49379;DHT22;35254;47.990;-1.608;2022-10-28T16:27:22;22.90;64.40
49379;DHT22;35254;47.990;-1.608;2022-10-28T16:29:49;22.90;64.40
49379;DHT22;35254;47.990;-1.608;2022-10-28T16:32:16;22.90;64.30
49379;DHT22;35254;47.990;-1.608;2022-10-28T16:34:43;23.00;64.40
49379;DHT22;35254;47.990;-1.608;2022-10-28T16:37:20;22.90;64.40
49379;DHT22;35254;47.990;-1.608;2022-10-28T16:39:46;22.90;64.50
49379;DHT22;35254;47.990;-1.608;2022-10-28T16:42:12;22.90;64.50
49379;DHT22;35254;47.990;-1.608;2022-10-28T16:44:37;22.90;64.40
49379;DHT22;35254;47.990;-1.608;2022-10-28T16:47:14;22.90;64.80
49379;DHT22;35254;47.990;-1.608;2022-10-28T16:49:41;22.90;64.90
49379;DHT22;35254;47.990;-1.608;2022-10-28T16:52:22;22.90;64.40
49379;DHT22;35254;47.990;-1.608;2022-10-28T16:54:49;22.90;64.60
49379;DHT22;35254;47.990;-1.608;2022-10-28T16:57:16;22.90;64.70
49379;DHT22;35254;47.990;-1.608;2022-10-28T16:59:42;22.90;64.50
49379;DHT22;35254;47.990;-1.608;2022-10-28T17:02:34;22.90;64.60
49379;DHT22;35254;47.990;-1.608;2022-10-28T17:05:00;22.90;64.60
49379;DHT22;35254;47.990;-1.608;2022-10-28T17:07:29;22.80;64.60
49379;DHT22;35254;47.990;-1.608;2022-10-28T17:09:55;22.80;64.70
49379;DHT22;35254;47.990;-1.608;2022-10-28T17:12:23;22.80;64.70
49379;DHT22;35254;47.990;-1.608;2022-10-28T17:14:50;22.80;64.60
49379;DHT22;35254;47.990;-1.608;2022-10-28T17:17:16;22.80;64.60
49379;DHT22;35254;47.990;-1.608;2022-10-28T17:19:41;22.80;64.80
49379;DHT22;35254;47.990;-1.608;2022-10-28T17:22:10;22.80;64.60
49379;DHT22;35254;47.990;-1.608;2022-10-28T17:24:36;22.80;64.90
49379;DHT22;35254;47.990;-1.608;2022-10-28T17:27:01;22.80;64.70
49379;DHT22;35254;47.990;-1.608;2022-10-28T17:29:27;22.80;64.90
49379;DHT22;35254;47.990;-1.608;2022-10-28T17:31:53;22.90;64.80
49379;DHT22;35254;47.990;-1.608;2022-10-28T17:34:18;22.80;64.70
49379;DHT22;35254;47.990;-1.608;2022-10-28T17:36:44;22.80;64.60
49379;DHT22;35254;47.990;-1.608;2022-10-28T17:39:10;22.80;64.60
49379;DHT22;35254;47.990;-1.608;2022-10-28T17:41:36;22.80;64.60
49379;DHT22;35254;47.990;-1.608;2022-10-28T17:44:02;22.80;64.60
49379;DHT22;35254;47.990;-1.608;2022-10-28T17:46:27;22.80;64.40
49379;DHT22;35254;47.990;-1.608;2022-10-28T17:48:53;22.80;64.60
49379;DHT22;35254;47.990;-1.608;2022-10-28T17:51:18;22.80;64.70
49379;DHT22;35254;47.990;-1.608;2022-10-28T17:53:51;22.80;64.50
49379;DHT22;35254;47.990;-1.608;2022-10-28T17:56:17;22.80;64.60
49379;DHT22;35254;47.990;-1.608;2022-10-28T17:58:43;22.80;64.50
49379;DHT22;35254;47.990;-1.608;2022-10-28T18:01:09;22.80;64.60
49379;DHT22;35254;47.990;-1.608;2022-10-28T18:03:36;22.80;64.50
49379;DHT22;35254;47.990;-1.608;2022-10-28T18:06:09;22.80;64.50
49379;DHT22;35254;47.990;-1.608;2022-10-28T18:08:40;22.80;64.50
49379;DHT22;35254;47.990;-1.608;2022-10-28T18:11:08;22.80;64.80
49379;DHT22;35254;47.990;-1.608;2022-10-28T18:13:36;22.70;65.20
49379;DHT22;35254;47.990;-1.608;2022-10-28T18:16:07;22.70;65.00
49379;DHT22;35254;47.990;-1.608;2022-10-28T18:18:33;22.70;65.00
49379;DHT22;35254;47.990;-1.608;2022-10-28T18:20:59;22.70;65.20
49379;DHT22;35254;47.990;-1.608;2022-10-28T18:23:25;22.70;65.20
49379;DHT22;35254;47.990;-1.608;2022-10-28T18:28:23;22.70;65.20
49379;DHT22;35254;47.990;-1.608;2022-10-28T18:30:49;22.70;65.20
49379;DHT22;35254;47.990;-1.608;2022-10-28T18:33:15;22.70;64.90
49379;DHT22;35254;47.990;-1.608;2022-10-28T18:35:40;22.70;64.30
49379;DHT22;35254;47.990;-1.608;2022-10-28T18:38:06;22.70;64.30
49379;DHT22;35254;47.990;-1.608;2022-10-28T18:40:31;22.70;64.40
49379;DHT22;35254;47.990;-1.608;2022-10-28T18:42:57;22.70;64.50